Time;durP1;ratioP1;P1;durP2;ratioP2;P2;SDS_P1;SDS_P2;PMS_P1;PMS_P2;Temp;Humidity;BMP_temperature;BMP_pressure;BME280_temperature;BME280_humidity;BME280_pressure;Samples;Min_cycle;Max_cycle;Signal;HPM_P1;HPM_P2
2023/07/30 00:01:41;;;;;;;8.47;3.03;;;16.90;75.60;;;;;;5025256;28;20049;-76
2023/07/30 00:04:08;;;;;;;11.30;3.40;;;16.90;75.60;;;;;;5022879;28;20748;-77
2023/07/30 00:06:34;;;;;;;9.15;3.05;;;16.90;75.70;;;;;;5025607;28;20577;-76
2023/07/30 00:09:02;;;;;;;9.48;3.45;;;16.80;75.90;;;;;;5026903;28;20054;-76
2023/07/30 00:11:30;;;;;;;9.55;3.22;;;16.80;76.00;;;;;;5025255;28;20081;-76
2023/07/30 00:13:57;;;;;;;9.57;3.47;;;16.80;76.20;;;;;;5014817;28;20053;-76
2023/07/30 00:16:26;;;;;;;12.35;3.33;;;16.80;76.10;;;;;;5029904;28;20285;-76
2023/07/30 00:18:53;;;;;;;9.00;3.60;;;16.70;76.20;;;;;;5045146;28;20049;-76
2023/07/30 00:21:20;;;;;;;12.02;3.33;;;16.70;76.10;;;;;;5012455;28;20160;-76
2023/07/30 00:23:47;;;;;;;7.93;2.70;;;16.70;76.40;;;;;;5026691;28;20073;-76
2023/07/30 00:26:14;;;;;;;9.03;2.93;;;16.70;76.30;;;;;;5027630;28;20054;-76
2023/07/30 00:28:43;;;;;;;9.50;2.80;;;16.60;76.50;;;;;;5027184;28;20332;-76
2023/07/30 00:31:09;;;;;;;9.95;3.35;;;16.60;76.50;;;;;;5025247;28;20053;-76
2023/07/30 00:33:36;;;;;;;10.13;3.22;;;16.60;76.50;;;;;;5020366;28;20065;-76
2023/07/30 00:36:04;;;;;;;10.63;3.45;;;16.60;76.50;;;;;;5038152;28;20549;-76
2023/07/30 00:38:31;;;;;;;9.93;3.27;;;16.60;76.60;;;;;;5035922;28;20591;-77
2023/07/30 00:40:58;;;;;;;9.90;3.40;;;16.50;76.50;;;;;;5027634;28;20273;-77
2023/07/30 00:43:25;;;;;;;10.10;3.13;;;16.50;76.60;;;;;;5029813;28;20140;-77
2023/07/30 00:45:53;;;;;;;8.60;3.35;;;16.50;76.70;;;;;;5012506;28;20048;-76
2023/07/30 00:48:20;;;;;;;11.13;3.85;;;16.50;76.80;;;;;;5028793;28;20550;-77
2023/07/30 00:50:47;;;;;;;9.10;2.90;;;16.50;76.90;;;;;;5027632;28;20491;-76
2023/07/30 00:53:17;;;;;;;9.07;3.08;;;16.40;76.90;;;;;;5028416;28;20254;-76
2023/07/30 00:55:44;;;;;;;12.35;3.55;;;16.40;77.00;;;;;;5028436;28;20135;-76
2023/07/30 00:58:12;;;;;;;10.63;3.08;;;16.40;77.20;;;;;;5043850;28;20744;-76
2023/07/30 01:00:40;;;;;;;13.18;3.58;;;16.40;77.30;;;;;;5011865;28;20144;-76
2023/07/30 01:03:08;;;;;;;9.60;3.23;;;16.40;77.30;;;;;;5061303;28;20060;-76
2023/07/30 01:05:35;;;;;;;8.35;2.92;;;16.40;77.40;;;;;;5012200;28;20403;-76
2023/07/30 01:08:02;;;;;;;13.93;3.38;;;16.40;77.50;;;;;;5044693;28;20121;-76
2023/07/30 01:10:31;;;;;;;10.40;3.03;;;16.30;77.60;;;;;;5028629;28;20081;-76
2023/07/30 01:12:58;;;;;;;10.65;3.33;;;16.30;77.70;;;;;;5011751;28;20439;-76
2023/07/30 01:15:25;;;;;;;7.87;3.00;;;16.30;77.80;;;;;;5032420;28;20053;-77
2023/07/30 01:17:53;;;;;;;10.40;3.47;;;16.30;77.70;;;;;;5028123;28;20355;-76
2023/07/30 01:20:21;;;;;;;10.40;3.15;;;16.20;77.70;;;;;;5011904;28;20567;-77
2023/07/30 01:22:50;;;;;;;11.40;3.35;;;16.20;78.00;;;;;;5028485;28;20062;-76
2023/07/30 01:25:17;;;;;;;9.93;3.22;;;16.20;78.00;;;;;;5034090;28;20056;-77
2023/07/30 01:27:52;;;;;;;8.60;3.30;;;16.10;78.10;;;;;;5024239;28;20097;-76
2023/07/30 01:30:23;;;;;;;10.20;3.40;;;16.10;78.20;;;;;;5025396;28;20424;-76
2023/07/30 01:32:51;;;;;;;11.65;2.97;;;16.10;78.20;;;;;;5027055;28;20050;-76
2023/07/30 01:35:21;;;;;;;13.45;3.10;;;16.10;78.20;;;;;;5012090;28;20499;-76
2023/07/30 01:37:50;;;;;;;11.75;3.20;;;16.10;78.20;;;;;;5023417;28;20133;-76
2023/07/30 01:40:17;;;;;;;9.87;3.20;;;16.00;78.30;;;;;;5027608;28;20057;-76
2023/07/30 01:42:44;;;;;;;9.63;2.95;;;16.00;78.30;;;;;;5027861;28;20275;-76
2023/07/30 01:45:11;;;;;;;10.05;3.15;;;16.00;78.40;;;;;;5043631;28;20100;-77
2023/07/30 01:47:38;;;;;;;9.43;3.30;;;16.00;78.50;;;;;;5028199;28;20593;-76
2023/07/30 01:50:06;;;;;;;11.73;3.35;;;16.00;78.50;;;;;;5043471;28;20054;-76
2023/07/30 01:52:32;;;;;;;13.73;3.40;;;16.00;78.60;;;;;;5044519;28;20046;-76
2023/07/30 01:55:01;;;;;;;8.52;2.90;;;16.00;78.60;;;;;;5044681;28;20299;-76
2023/07/30 01:57:28;;;;;;;10.07;3.42;;;16.00;78.60;;;;;;5061082;28;20463;-76
2023/07/30 01:59:55;;;;;;;11.40;3.03;;;15.90;78.60;;;;;;5010399;28;20124;-76
2023/07/30 02:02:22;;;;;;;8.98;3.30;;;15.80;78.70;;;;;;5010860;28;20153;-76
2023/07/30 02:04:49;;;;;;;11.97;3.37;;;15.80;78.70;;;;;;5029492;28;20583;-76
2023/07/30 02:07:16;;;;;;;11.80;3.67;;;15.80;78.70;;;;;;5032323;28;20299;-76
2023/07/30 02:09:44;;;;;;;9.05;3.65;;;15.80;78.80;;;;;;5060299;28;20492;-76
2023/07/30 02:12:12;;;;;;;12.63;3.63;;;15.80;78.90;;;;;;5010991;28;20492;-76
2023/07/30 02:14:39;;;;;;;10.75;2.75;;;15.80;79.00;;;;;;5011535;28;20689;-76
2023/07/30 02:17:06;;;;;;;11.70;3.13;;;15.80;78.90;;;;;;5027729;28;20049;-76
2023/07/30 02:19:33;;;;;;;9.77;3.33;;;15.80;79.00;;;;;;5027160;28;20817;-76
2023/07/30 02:22:00;;;;;;;11.25;3.17;;;15.70;79.10;;;;;;5027392;28;20141;-76
2023/07/30 02:24:28;;;;;;;8.38;3.05;;;15.60;79.20;;;;;;5028804;28;20049;-76
2023/07/30 02:26:55;;;;;;;10.32;3.03;;;15.60;79.20;;;;;;5081012;28;20129;-76
2023/07/30 02:29:23;;;;;;;10.37;2.90;;;15.60;79.30;;;;;;5079047;28;20046;-77
2023/07/30 02:31:50;;;;;;;9.52;2.97;;;15.60;79.30;;;;;;5027107;28;20267;-76
2023/07/30 02:34:17;;;;;;;8.88;2.53;;;15.60;79.30;;;;;;5010637;28;20621;-76
2023/07/30 02:36:44;;;;;;;11.38;3.20;;;15.60;79.40;;;;;;5010307;28;20499;-76
2023/07/30 02:39:11;;;;;;;10.15;2.53;;;15.60;79.50;;;;;;5027627;28;20046;-76
2023/07/30 02:41:38;;;;;;;11.23;3.30;;;15.60;79.60;;;;;;5023823;28;20215;-77
2023/07/30 02:44:05;;;;;;;12.18;2.80;;;15.50;79.50;;;;;;5023681;28;20573;-76
2023/07/30 02:46:33;;;;;;;10.05;2.53;;;15.50;79.70;;;;;;5010624;28;20049;-76
2023/07/30 02:49:00;;;;;;;9.38;2.47;;;15.50;79.70;;;;;;5010378;28;20069;-77
2023/07/30 02:51:27;;;;;;;11.02;2.63;;;15.50;80.00;;;;;;5010378;28;20919;-76
2023/07/30 02:53:59;;;;;;;9.97;2.80;;;15.50;80.00;;;;;;5010475;28;20050;-76
2023/07/30 02:56:26;;;;;;;9.70;2.70;;;15.50;80.00;;;;;;5043476;28;20703;-76
2023/07/30 02:58:52;;;;;;;8.85;2.63;;;15.50;80.00;;;;;;5043519;28;20234;-76
2023/07/30 03:01:19;;;;;;;10.25;2.70;;;15.50;80.00;;;;;;5025167;28;20667;-76
2023/07/30 03:03:48;;;;;;;8.07;2.17;;;15.50;80.30;;;;;;5009993;28;20141;-76
2023/07/30 03:06:16;;;;;;;9.73;2.30;;;15.50;80.20;;;;;;5010485;28;20046;-77
2023/07/30 03:08:43;;;;;;;10.63;2.42;;;15.50;80.20;;;;;;5043033;28;20743;-76
2023/07/30 03:11:10;;;;;;;9.38;2.10;;;15.50;80.20;;;;;;5026871;28;20172;-76
2023/07/30 03:13:37;;;;;;;12.98;2.50;;;15.40;80.40;;;;;;5010134;28;20165;-77
2023/07/30 03:16:05;;;;;;;12.82;2.67;;;15.50;80.50;;;;;;5026601;28;20056;-76
2023/07/30 03:18:32;;;;;;;12.10;2.67;;;15.40;80.70;;;;;;5008459;28;20050;-76
2023/07/30 03:21:01;;;;;;;8.60;2.30;;;15.40;80.50;;;;;;5026989;28;20277;-76
2023/07/30 03:23:28;;;;;;;8.52;2.30;;;15.40;80.60;;;;;;5026366;28;20486;-76
2023/07/30 03:25:55;;;;;;;8.93;2.40;;;15.40;80.70;;;;;;5009886;28;20054;-76
2023/07/30 03:28:22;;;;;;;7.85;2.20;;;15.40;80.70;;;;;;5009851;28;20119;-76
2023/07/30 03:30:49;;;;;;;10.90;2.67;;;15.40;80.80;;;;;;5026609;28;20128;-76
2023/07/30 03:33:16;;;;;;;8.35;2.08;;;15.40;80.80;;;;;;5028371;28;20266;-76
2023/07/30 03:35:43;;;;;;;12.80;2.35;;;15.40;80.80;;;;;;5026951;28;20076;-76
2023/07/30 03:38:11;;;;;;;13.82;2.35;;;15.30;80.80;;;;;;5009788;28;20559;-76
2023/07/30 03:40:38;;;;;;;9.45;2.53;;;15.30;80.80;;;;;;5026356;28;20212;-76
2023/07/30 03:43:05;;;;;;;11.50;2.80;;;15.30;80.90;;;;;;5034676;28;20519;-76
2023/07/30 03:45:32;;;;;;;12.05;2.97;;;15.30;80.90;;;;;;5045972;28;20340;-76
2023/07/30 03:47:59;;;;;;;9.07;1.98;;;15.30;80.80;;;;;;5039062;28;20105;-76
2023/07/30 03:50:26;;;;;;;9.75;2.60;;;15.30;80.90;;;;;;5013395;28;20517;-76
2023/07/30 03:52:54;;;;;;;8.85;2.15;;;15.30;80.90;;;;;;5030063;28;20054;-76
2023/07/30 03:55:22;;;;;;;9.33;2.43;;;15.30;81.00;;;;;;5013675;28;20142;-76
2023/07/30 03:57:49;;;;;;;10.65;2.42;;;15.30;80.90;;;;;;5013051;28;20277;-76
2023/07/30 04:00:16;;;;;;;9.65;2.10;;;15.30;81.00;;;;;;5028705;28;20049;-76
2023/07/30 04:02:43;;;;;;;7.47;2.10;;;15.30;81.00;;;;;;5031147;28;20057;-76
2023/07/30 04:05:10;;;;;;;9.60;2.47;;;15.20;81.10;;;;;;5013116;28;20074;-76
2023/07/30 04:07:37;;;;;;;14.73;2.80;;;15.20;81.00;;;;;;5029548;28;20054;-77
2023/07/30 04:10:04;;;;;;;7.18;2.05;;;15.20;81.40;;;;;;5012587;28;20272;-76
2023/07/30 04:12:32;;;;;;;7.88;2.53;;;15.20;81.20;;;;;;5012613;28;20050;-76
2023/07/30 04:14:59;;;;;;;11.23;2.00;;;15.20;81.50;;;;;;5013022;28;20048;-76
2023/07/30 04:17:27;;;;;;;10.45;2.50;;;15.20;81.50;;;;;;5030662;28;20570;-76
2023/07/30 04:19:54;;;;;;;9.20;2.40;;;15.20;81.50;;;;;;5012749;28;20049;-76
2023/07/30 04:22:21;;;;;;;8.95;2.28;;;15.20;81.50;;;;;;5011886;28;20352;-76
2023/07/30 04:24:48;;;;;;;8.05;2.00;;;15.20;81.60;;;;;;5012643;28;20060;-77
2023/07/30 04:27:15;;;;;;;10.73;2.53;;;15.20;81.60;;;;;;5027436;28;20583;-76
2023/07/30 04:29:43;;;;;;;10.52;2.53;;;15.20;81.70;;;;;;5029217;28;20471;-76
2023/07/30 04:32:10;;;;;;;7.50;2.40;;;15.20;81.90;;;;;;5013004;28;20450;-76
2023/07/30 04:34:38;;;;;;;12.40;2.42;;;15.20;81.80;;;;;;5009273;28;20253;-76
2023/07/30 04:37:05;;;;;;;13.82;2.90;;;15.20;81.90;;;;;;5024525;28;20108;-76
2023/07/30 04:39:36;;;;;;;9.50;2.58;;;15.20;82.00;;;;;;5044384;28;20113;-76
2023/07/30 04:42:04;;;;;;;11.20;3.03;;;15.20;82.20;;;;;;5029183;28;20080;-76
2023/07/30 04:44:31;;;;;;;11.23;2.90;;;15.20;82.30;;;;;;5044484;28;20056;-76
2023/07/30 04:47:07;;;;;;;12.52;2.90;;;15.20;82.60;;;;;;5028622;28;20869;-76
2023/07/30 04:49:34;;;;;;;12.65;2.72;;;15.20;82.70;;;;;;5023291;28;20209;-76
2023/07/30 04:52:00;;;;;;;7.72;2.35;;;15.20;82.90;;;;;;5011971;28;20508;-76
2023/07/30 04:54:27;;;;;;;13.18;2.90;;;15.30;83.00;;;;;;5028934;28;20436;-76
2023/07/30 04:56:54;;;;;;;13.87;3.17;;;15.30;83.00;;;;;;5012234;28;20085;-76
2023/07/30 04:59:22;;;;;;;11.18;2.75;;;15.30;83.30;;;;;;5028037;28;20435;-76
2023/07/30 05:01:49;;;;;;;14.57;2.90;;;15.30;83.30;;;;;;5028383;28;20124;-76
2023/07/30 05:04:17;;;;;;;10.20;2.78;;;15.30;83.40;;;;;;5028474;28;20046;-77
2023/07/30 05:06:44;;;;;;;9.18;2.45;;;15.30;83.50;;;;;;5028449;28;20054;-76
2023/07/30 05:09:11;;;;;;;11.33;2.90;;;15.40;83.70;;;;;;5030745;28;20058;-76
2023/07/30 05:11:39;;;;;;;10.23;2.75;;;15.40;83.80;;;;;;5028981;28;20253;-76
2023/07/30 05:14:06;;;;;;;10.60;3.00;;;15.40;84.00;;;;;;5028594;28;20046;-77
2023/07/30 05:16:33;;;;;;;10.65;2.75;;;15.50;84.10;;;;;;5028659;28;20100;-77
2023/07/30 05:19:00;;;;;;;12.75;3.03;;;15.50;84.20;;;;;;5028394;28;20054;-76
2023/07/30 05:21:28;;;;;;;13.23;2.87;;;15.50;84.40;;;;;;5028623;28;20132;-77
2023/07/30 05:23:55;;;;;;;14.35;3.35;;;15.50;84.50;;;;;;5018451;28;20314;-77
2023/07/30 05:26:22;;;;;;;12.38;2.70;;;15.60;84.60;;;;;;5037417;28;20062;-76
2023/07/30 05:28:49;;;;;;;9.88;2.80;;;15.60;84.60;;;;;;5028206;28;20049;-76
2023/07/30 05:31:16;;;;;;;12.63;2.90;;;15.60;84.60;;;;;;5028163;28;20056;-76
2023/07/30 05:33:43;;;;;;;12.50;3.03;;;15.60;85.00;;;;;;5028173;28;20133;-76
2023/07/30 05:36:10;;;;;;;14.13;3.33;;;15.60;85.00;;;;;;5028393;28;20280;-76
2023/07/30 05:38:38;;;;;;;12.13;3.00;;;15.70;84.90;;;;;;5027256;28;20650;-76
2023/07/30 05:41:05;;;;;;;10.77;2.85;;;15.70;85.20;;;;;;5027737;28;20132;-76
2023/07/30 05:43:32;;;;;;;10.13;2.97;;;15.80;85.30;;;;;;5028263;28;20046;-77
2023/07/30 05:45:59;;;;;;;15.50;3.57;;;15.80;85.30;;;;;;5011922;28;20137;-76
2023/07/30 05:48:25;;;;;;;17.80;3.50;;;15.80;85.50;;;;;;5027538;28;20238;-76
2023/07/30 05:50:52;;;;;;;12.25;2.92;;;15.80;85.40;;;;;;5026924;28;20129;-77
2023/07/30 05:53:19;;;;;;;11.38;2.83;;;15.90;85.70;;;;;;5027431;28;20042;-76
2023/07/30 05:55:47;;;;;;;14.63;3.15;;;16.00;85.50;;;;;;5029247;28;20320;-76
2023/07/30 05:58:15;;;;;;;17.10;3.50;;;16.00;85.80;;;;;;5079981;28;20045;-76
2023/07/30 06:00:42;;;;;;;14.32;3.47;;;16.00;85.80;;;;;;5042859;28;20806;-76
2023/07/30 06:03:09;;;;;;;12.45;3.00;;;16.10;85.90;;;;;;5029184;28;20054;-77
2023/07/30 06:05:40;;;;;;;16.23;3.20;;;16.10;85.90;;;;;;5026452;28;20049;-77
2023/07/30 06:08:07;;;;;;;16.95;3.63;;;16.10;85.90;;;;;;5026130;28;20050;-77
2023/07/30 06:10:36;;;;;;;14.53;3.63;;;16.20;86.00;;;;;;5026133;28;20068;-77
2023/07/30 06:13:05;;;;;;;13.95;3.42;;;16.20;85.90;;;;;;5028190;28;20275;-77
2023/07/30 06:15:32;;;;;;;15.32;3.38;;;16.20;86.20;;;;;;5044532;28;20053;-76
2023/07/30 06:17:59;;;;;;;14.48;3.80;;;16.30;86.30;;;;;;5025451;28;20054;-76
2023/07/30 06:20:26;;;;;;;14.30;3.00;;;16.40;86.20;;;;;;5034116;28;20546;-75
2023/07/30 06:22:53;;;;;;;11.80;3.43;;;16.40;86.10;;;;;;5031808;28;20048;-75
2023/07/30 06:25:20;;;;;;;12.60;3.53;;;16.40;86.00;;;;;;5019305;28;20292;-76
2023/07/30 06:27:47;;;;;;;15.55;3.42;;;16.40;85.90;;;;;;5021766;28;20064;-77
2023/07/30 06:30:15;;;;;;;13.85;3.33;;;16.50;86.00;;;;;;5027208;28;20944;-77
2023/07/30 06:32:42;;;;;;;13.18;3.35;;;16.50;85.90;;;;;;5042164;28;20057;-76
2023/07/30 06:35:09;;;;;;;11.93;3.13;;;16.50;85.70;;;;;;5059137;28;20064;-75
2023/07/30 06:37:36;;;;;;;17.50;3.75;;;16.50;85.70;;;;;;5058837;28;20246;-75
2023/07/30 06:40:06;;;;;;;15.15;3.70;;;16.60;85.70;;;;;;5026968;28;20052;-75
2023/07/30 06:42:33;;;;;;;13.90;3.20;;;16.60;85.40;;;;;;5026296;28;20054;-76
2023/07/30 06:45:00;;;;;;;11.45;2.83;;;16.60;85.50;;;;;;5027510;28;20046;-75
2023/07/30 06:47:28;;;;;;;12.30;3.13;;;16.60;85.30;;;;;;5025500;28;20761;-77
2023/07/30 06:49:55;;;;;;;10.43;2.90;;;16.70;85.20;;;;;;5073561;28;20751;-76
2023/07/30 06:52:22;;;;;;;15.07;3.40;;;16.70;85.00;;;;;;5055359;28;20126;-76
2023/07/30 06:54:48;;;;;;;13.15;2.65;;;16.70;85.20;;;;;;5025349;28;20073;-77
2023/07/30 06:57:15;;;;;;;17.90;3.30;;;16.70;85.00;;;;;;5015689;28;20053;-76
2023/07/30 06:59:42;;;;;;;13.13;2.77;;;16.80;84.70;;;;;;5032049;28;20050;-77
2023/07/30 07:02:09;;;;;;;16.17;3.28;;;16.80;84.30;;;;;;5034380;28;20893;-76
2023/07/30 07:04:37;;;;;;;13.85;3.05;;;16.80;84.20;;;;;;5035591;28;20050;-78
2023/07/30 07:07:05;;;;;;;13.23;2.60;;;16.90;83.80;;;;;;5036501;28;20174;-77
2023/07/30 07:09:32;;;;;;;10.73;2.50;;;16.90;83.40;;;;;;5032676;28;20550;-77
2023/07/30 07:11:59;;;;;;;13.50;2.83;;;16.90;83.40;;;;;;5022569;28;20371;-76
2023/07/30 07:14:26;;;;;;;11.77;2.70;;;16.90;83.40;;;;;;5059190;28;20287;-78
2023/07/30 07:16:55;;;;;;;11.43;2.58;;;17.00;83.00;;;;;;5030869;28;20559;-78
2023/07/30 07:19:22;;;;;;;9.75;2.50;;;17.00;82.40;;;;;;5054588;28;20383;-78
2023/07/30 07:21:51;;;;;;;11.73;2.50;;;17.00;82.30;;;;;;5030945;28;20046;-76
2023/07/30 07:24:18;;;;;;;11.27;1.97;;;17.10;82.10;;;;;;5028322;28;20042;-78
2023/07/30 07:26:45;;;;;;;11.48;2.17;;;17.10;81.70;;;;;;5029988;28;20269;-77
2023/07/30 07:29:12;;;;;;;13.80;2.10;;;17.20;81.40;;;;;;5028921;28;20088;-77
2023/07/30 07:31:39;;;;;;;11.85;3.00;;;17.20;81.20;;;;;;5025442;28;20057;-77
2023/07/30 07:34:06;;;;;;;13.32;2.58;;;17.20;81.10;;;;;;5028656;28;20050;-77
2023/07/30 07:36:35;;;;;;;10.97;2.73;;;17.40;79.70;;;;;;5029148;28;20053;-77
2023/07/30 07:39:03;;;;;;;15.00;2.88;;;17.40;80.10;;;;;;5031422;28;20746;-78
2023/07/30 07:41:31;;;;;;;10.73;2.35;;;17.50;79.70;;;;;;5012616;28;20133;-77
2023/07/30 07:43:58;;;;;;;9.38;2.40;;;17.50;79.30;;;;;;5031446;28;20050;-77
2023/07/30 07:46:27;;;;;;;11.02;2.13;;;17.50;79.20;;;;;;5030979;28;20587;-79
2023/07/30 07:48:54;;;;;;;13.97;2.50;;;17.60;78.00;;;;;;5028885;28;20096;-77
2023/07/30 07:51:21;;;;;;;10.20;2.33;;;17.60;78.20;;;;;;5024158;28;20269;-78
2023/07/30 07:53:48;;;;;;;9.57;2.15;;;17.60;78.10;;;;;;5029943;28;20060;-78
2023/07/30 07:56:17;;;;;;;11.90;2.35;;;17.70;77.70;;;;;;5026368;28;20057;-77
2023/07/30 07:58:44;;;;;;;13.35;2.42;;;17.70;76.90;;;;;;5062810;28;21017;-77
2023/07/30 08:01:11;;;;;;;11.23;2.40;;;17.80;77.30;;;;;;5028421;28;20129;-77
2023/07/30 08:03:38;;;;;;;10.52;2.22;;;17.80;77.30;;;;;;5029268;28;20846;-78
2023/07/30 08:06:06;;;;;;;11.18;2.63;;;17.90;76.50;;;;;;5025823;28;20050;-76
2023/07/30 08:08:34;;;;;;;12.57;2.40;;;17.90;76.70;;;;;;5026756;28;20534;-78
2023/07/30 08:11:06;;;;;;;12.15;2.67;;;18.00;76.10;;;;;;5059308;28;20058;-76
2023/07/30 08:13:34;;;;;;;10.23;2.13;;;18.00;74.90;;;;;;5027071;28;20543;-76
2023/07/30 08:16:01;;;;;;;10.30;2.08;;;18.00;74.70;;;;;;5027846;28;20242;-76
2023/07/30 08:18:29;;;;;;;11.00;2.17;;;18.10;75.00;;;;;;5035273;28;20045;-79
2023/07/30 08:20:56;;;;;;;11.02;2.00;;;18.10;74.80;;;;;;5046868;28;20086;-77
2023/07/30 08:23:25;;;;;;;9.52;2.10;;;18.10;73.90;;;;;;5045189;28;20059;-77
2023/07/30 08:25:52;;;;;;;8.70;1.97;;;18.20;73.30;;;;;;5059957;28;20544;-78
2023/07/30 08:28:19;;;;;;;9.02;2.00;;;18.20;73.90;;;;;;5025981;28;21328;-78
2023/07/30 08:30:48;;;;;;;11.10;1.70;;;18.20;73.10;;;;;;5025556;28;20475;-77
2023/07/30 08:33:15;;;;;;;9.18;1.88;;;18.20;72.70;;;;;;5025445;28;20097;-76
2023/07/30 08:35:42;;;;;;;10.35;2.10;;;18.30;72.50;;;;;;5030783;28;20050;-76
2023/07/30 08:38:09;;;;;;;11.07;2.70;;;18.30;71.80;;;;;;5061346;28;20180;-77
2023/07/30 08:40:36;;;;;;;9.52;2.28;;;18.30;71.60;;;;;;5031468;28;20256;-78
2023/07/30 08:43:04;;;;;;;10.57;2.45;;;18.20;71.90;;;;;;5031995;28;20058;-80
2023/07/30 08:45:31;;;;;;;12.90;2.53;;;18.20;71.60;;;;;;5026269;28;20046;-80
2023/07/30 08:48:00;;;;;;;5.90;1.67;;;18.20;71.50;;;;;;5062850;28;20055;-80
2023/07/30 08:50:28;;;;;;;10.40;1.90;;;18.20;71.60;;;;;;5029731;28;20054;-80
2023/07/30 08:52:56;;;;;;;10.82;2.55;;;18.20;71.80;;;;;;5030795;28;20285;-80
2023/07/30 08:55:25;;;;;;;5.57;1.10;;;18.10;71.90;;;;;;5030426;28;20056;-80
2023/07/30 08:57:53;;;;;;;6.80;1.20;;;18.10;71.30;;;;;;5021859;28;20050;-80
2023/07/30 09:00:25;;;;;;;5.93;1.17;;;18.00;71.00;;;;;;5028810;28;20050;-81
2023/07/30 09:02:58;;;;;;;4.50;0.83;;;18.00;71.00;;;;;;5028783;28;20121;-80
2023/07/30 09:05:29;;;;;;;2.83;0.47;;;17.80;71.30;;;;;;5029295;28;20261;-80
2023/07/30 09:07:56;;;;;;;6.85;1.30;;;17.80;72.00;;;;;;5060141;28;20058;-79
2023/07/30 09:10:24;;;;;;;12.43;3.22;;;17.60;72.30;;;;;;5028653;28;20483;-80
2023/07/30 09:12:54;;;;;;;8.77;2.33;;;17.60;73.20;;;;;;5026009;28;20148;-80
2023/07/30 09:15:31;;;;;;;9.47;3.13;;;17.80;74.00;;;;;;5031298;28;20058;-80
2023/07/30 09:17:58;;;;;;;7.85;3.00;;;17.80;74.10;;;;;;5026379;28;20261;-78
2023/07/30 09:20:27;;;;;;;11.10;3.30;;;17.80;74.20;;;;;;5035284;28;20050;-79
2023/07/30 09:22:59;;;;;;;8.48;2.72;;;17.80;73.80;;;;;;5026396;28;20081;-76
2023/07/30 09:25:26;;;;;;;9.68;2.80;;;17.90;73.40;;;;;;5029600;28;20065;-79
2023/07/30 09:27:53;;;;;;;10.87;3.30;;;18.00;73.20;;;;;;5028556;28;20857;-77
2023/07/30 09:30:24;;;;;;;9.20;2.60;;;18.00;73.30;;;;;;5028120;28;20273;-78
2023/07/30 09:32:53;;;;;;;11.05;2.83;;;18.00;73.50;;;;;;5027815;28;21848;-78
2023/07/30 09:35:21;;;;;;;7.43;2.42;;;18.00;73.50;;;;;;5035150;28;20057;-78
2023/07/30 09:37:50;;;;;;;7.28;1.40;;;18.00;73.70;;;;;;5040289;28;20062;-77
2023/07/30 09:40:18;;;;;;;9.80;1.67;;;18.00;75.00;;;;;;5038003;28;20054;-77
2023/07/30 09:42:47;;;;;;;6.32;1.60;;;18.00;75.30;;;;;;5034385;28;20288;-77
2023/07/30 09:45:23;;;;;;;6.68;1.40;;;17.80;73.90;;;;;;5027629;28;20049;-76
2023/07/30 09:47:51;;;;;;;7.53;2.15;;;17.60;74.10;;;;;;5027656;28;20563;-76
2023/07/30 09:50:19;;;;;;;7.28;1.75;;;17.50;75.20;;;;;;5032873;28;20046;-76
2023/07/30 09:52:47;;;;;;;8.90;2.10;;;17.30;76.20;;;;;;5055292;28;20169;-76
2023/07/30 09:55:15;;;;;;;6.40;1.70;;;17.20;76.60;;;;;;5042128;28;20621;-77
2023/07/30 09:57:42;;;;;;;4.70;1.42;;;17.10;76.70;;;;;;5032083;28;20058;-78
2023/07/30 10:00:10;;;;;;;7.75;1.92;;;17.00;76.70;;;;;;5018123;28;20055;-75
2023/07/30 10:02:40;;;;;;;6.72;1.38;;;17.00;76.90;;;;;;5023017;28;20047;-74
2023/07/30 10:05:12;;;;;;;6.63;1.40;;;16.90;77.20;;;;;;5042536;28;20050;-75
2023/07/30 10:07:41;;;;;;;4.25;1.55;;;16.80;77.70;;;;;;5010725;28;20253;-77
2023/07/30 10:10:09;;;;;;;4.95;1.20;;;16.70;78.10;;;;;;5029302;28;20057;-76
2023/07/30 10:12:40;;;;;;;6.60;1.55;;;16.70;78.70;;;;;;5032194;28;20069;-76
2023/07/30 10:15:08;;;;;;;6.30;1.48;;;16.70;78.80;;;;;;5033140;28;20050;-76
2023/07/30 10:17:35;;;;;;;8.17;1.60;;;16.60;79.10;;;;;;5030558;28;20144;-77
2023/07/30 10:20:26;;;;;;;5.43;1.50;;;16.60;79.50;;;;;;5034928;28;20284;-76
2023/07/30 10:22:54;;;;;;;6.35;1.40;;;16.60;80.10;;;;;;5039405;28;20133;-76
2023/07/30 10:25:30;;;;;;;4.10;0.85;;;16.60;80.50;;;;;;5034518;28;20496;-76
2023/07/30 10:28:01;;;;;;;5.10;1.30;;;16.70;81.50;;;;;;5030638;28;20093;-75
2023/07/30 10:30:32;;;;;;;7.77;1.70;;;16.70;81.90;;;;;;5039111;28;20057;-79
2023/07/30 10:33:02;;;;;;;8.82;1.55;;;16.70;82.20;;;;;;5030100;28;20573;-77
2023/07/30 10:35:43;;;;;;;4.93;1.40;;;16.80;82.80;;;;;;5027481;28;20058;-78
2023/07/30 10:38:17;;;;;;;6.47;1.65;;;16.90;83.50;;;;;;5025707;28;20897;-80
2023/07/30 10:41:03;;;;;;;6.20;1.10;;;17.00;83.80;;;;;;5017811;28;20064;-78
2023/07/30 10:43:32;;;;;;;7.07;1.80;;;17.10;83.40;;;;;;5053968;28;20042;-77
2023/07/30 10:45:59;;;;;;;11.05;2.20;;;17.20;83.30;;;;;;5029087;28;20246;-77
2023/07/30 10:48:33;;;;;;;8.40;2.20;;;17.40;83.70;;;;;;5061207;28;20058;-78
2023/07/30 10:51:02;;;;;;;4.90;1.80;;;17.50;83.30;;;;;;5028990;28;20050;-78
2023/07/30 10:53:29;;;;;;;7.57;1.70;;;17.50;83.00;;;;;;5027292;28;20451;-78
2023/07/30 10:56:00;;;;;;;8.67;2.20;;;17.60;83.50;;;;;;5026666;28;20092;-79
2023/07/30 10:58:27;;;;;;;6.10;1.58;;;17.80;83.50;;;;;;5018814;28;20265;-79
2023/07/30 11:00:56;;;;;;;7.75;1.45;;;17.90;82.40;;;;;;5060106;28;20581;-77
2023/07/30 11:03:26;;;;;;;7.40;2.08;;;18.00;81.10;;;;;;5027566;28;20054;-78
2023/07/30 11:05:53;;;;;;;9.75;1.88;;;18.20;79.30;;;;;;5026739;28;20052;-77
2023/07/30 11:08:32;;;;;;;9.10;1.80;;;18.30;77.80;;;;;;5032858;28;20057;-77
2023/07/30 11:10:59;;;;;;;5.93;1.40;;;18.40;76.10;;;;;;5036122;28;20260;-77
2023/07/30 11:13:26;;;;;;;8.15;1.60;;;18.50;75.30;;;;;;5034264;28;20498;-77
2023/07/30 11:15:53;;;;;;;8.35;1.85;;;18.60;74.20;;;;;;5033647;28;20834;-79
2023/07/30 11:18:22;;;;;;;8.73;1.98;;;18.60;72.80;;;;;;5022343;28;20531;-78
2023/07/30 11:20:50;;;;;;;6.23;1.30;;;18.70;73.10;;;;;;5027927;28;20049;-78
2023/07/30 11:23:21;;;;;;;5.38;1.20;;;18.70;74.00;;;;;;5026444;28;20380;-77
2023/07/30 11:25:50;;;;;;;9.52;1.98;;;18.80;72.80;;;;;;5025896;28;20046;-77
2023/07/30 11:28:29;;;;;;;8.05;1.80;;;18.90;72.10;;;;;;5025850;28;20058;-77
2023/07/30 11:30:57;;;;;;;7.05;1.60;;;19.00;70.90;;;;;;5023987;28;20054;-77
2023/07/30 11:33:25;;;;;;;9.40;1.50;;;19.10;71.20;;;;;;5049497;28;20046;-77
2023/07/30 11:35:52;;;;;;;6.93;1.50;;;19.10;70.20;;;;;;5024363;28;20269;-77
2023/07/30 11:38:20;;;;;;;6.22;1.15;;;19.20;70.10;;;;;;5050114;28;20093;-77
2023/07/30 11:40:48;;;;;;;4.60;1.15;;;19.30;68.90;;;;;;5029597;28;20050;-77
2023/07/30 11:43:15;;;;;;;7.53;1.10;;;19.40;68.40;;;;;;5058086;28;20413;-77
2023/07/30 11:45:42;;;;;;;5.80;1.00;;;19.50;67.50;;;;;;5025162;28;20133;-77
2023/07/30 11:48:10;;;;;;;9.55;1.10;;;19.50;68.10;;;;;;5026429;28;20268;-78
2023/07/30 11:50:46;;;;;;;7.10;1.23;;;19.50;68.90;;;;;;5025157;28;20165;-77
2023/07/30 11:53:13;;;;;;;3.17;1.05;;;19.60;67.80;;;;;;5026186;28;20230;-78
2023/07/30 11:55:42;;;;;;;6.70;1.00;;;19.60;66.60;;;;;;5028133;28;20058;-77
2023/07/30 11:58:10;;;;;;;5.80;1.30;;;19.60;67.30;;;;;;5030290;28;20558;-77
2023/07/30 12:00:37;;;;;;;9.18;1.45;;;19.60;67.20;;;;;;5022720;28;20245;-77
2023/07/30 12:03:05;;;;;;;4.82;0.93;;;19.70;65.90;;;;;;5058896;28;20053;-78
2023/07/30 12:05:34;;;;;;;4.28;1.10;;;19.70;64.40;;;;;;5031089;28;20124;-79
2023/07/30 12:08:07;;;;;;;6.57;1.27;;;19.60;63.60;;;;;;5033601;28;20241;-78
2023/07/30 12:10:44;;;;;;;5.50;1.20;;;19.50;63.20;;;;;;5034317;28;20054;-79
2023/07/30 12:13:13;;;;;;;6.80;1.35;;;19.50;63.30;;;;;;5035965;28;20830;-79
2023/07/30 12:15:41;;;;;;;4.40;0.98;;;19.50;64.00;;;;;;5037282;28;20049;-78
2023/07/30 12:18:15;;;;;;;5.53;0.93;;;19.50;63.20;;;;;;5031786;28;20050;-77
2023/07/30 12:20:42;;;;;;;6.22;1.50;;;19.40;63.30;;;;;;5014476;28;20038;-77
2023/07/30 12:23:10;;;;;;;5.93;1.17;;;19.40;63.20;;;;;;5028333;28;20050;-76
2023/07/30 12:25:37;;;;;;;5.70;1.08;;;19.30;64.50;;;;;;5027809;28;20269;-77
2023/07/30 12:28:05;;;;;;;3.20;0.80;;;19.30;64.80;;;;;;5030617;28;20156;-76
2023/07/30 12:30:32;;;;;;;3.55;0.82;;;19.20;64.60;;;;;;5013760;28;20129;-76
2023/07/30 12:32:59;;;;;;;4.63;1.08;;;19.20;65.30;;;;;;5034276;28;20054;-77
2023/07/30 12:35:26;;;;;;;8.60;1.40;;;19.30;65.50;;;;;;5039605;28;20729;-77
2023/07/30 12:37:53;;;;;;;6.70;1.30;;;19.30;66.80;;;;;;5031940;28;20293;-77
2023/07/30 12:40:21;;;;;;;8.13;1.50;;;19.30;67.70;;;;;;5030065;28;20054;-78
2023/07/30 12:42:48;;;;;;;4.38;0.77;;;19.40;67.20;;;;;;5033818;28;20532;-77
2023/07/30 12:45:16;;;;;;;5.00;0.90;;;19.50;65.50;;;;;;5036776;28;20049;-77
2023/07/30 12:47:53;;;;;;;;;;;;;;;;;;;;;